sensor_id;sensor_type;location;lat;lon;timestamp;temperature;humidity
72650;SHT31;61467;50.674;4.618;2023-02-01T00:02:15;7.39;86.08
72650;SHT31;61467;50.674;4.618;2023-02-01T00:04:44;7.34;86.52
72650;SHT31;61467;50.674;4.618;2023-02-01T00:07:11;7.44;86.11
72650;SHT31;61467;50.674;4.618;2023-02-01T00:09:38;7.53;85.89
72650;SHT31;61467;50.674;4.618;2023-02-01T00:12:05;7.44;86.09
72650;SHT31;61467;50.674;4.618;2023-02-01T00:14:33;7.33;86.31
72650;SHT31;61467;50.674;4.618;2023-02-01T00:17:04;7.43;86.01
72650;SHT31;61467;50.674;4.618;2023-02-01T00:19:31;7.57;85.93
72650;SHT31;61467;50.674;4.618;2023-02-01T00:21:58;7.62;85.48
72650;SHT31;61467;50.674;4.618;2023-02-01T00:24:25;7.57;85.52
72650;SHT31;61467;50.674;4.618;2023-02-01T00:26:52;7.40;85.66
72650;SHT31;61467;50.674;4.618;2023-02-01T00:29:20;7.42;86.04
72650;SHT31;61467;50.674;4.618;2023-02-01T00:31:51;7.69;85.10
72650;SHT31;61467;50.674;4.618;2023-02-01T00:34:19;7.43;85.68
72650;SHT31;61467;50.674;4.618;2023-02-01T00:36:46;7.44;85.40
72650;SHT31;61467;50.674;4.618;2023-02-01T00:39:14;7.62;84.98
72650;SHT31;61467;50.674;4.618;2023-02-01T00:41:41;7.44;85.29
72650;SHT31;61467;50.674;4.618;2023-02-01T00:44:08;7.66;85.26
72650;SHT31;61467;50.674;4.618;2023-02-01T00:46:34;7.40;85.34
72650;SHT31;61467;50.674;4.618;2023-02-01T00:49:03;7.63;84.62
72650;SHT31;61467;50.674;4.618;2023-02-01T00:51:30;7.81;83.85
72650;SHT31;61467;50.674;4.618;2023-02-01T00:53:59;7.66;84.29
72650;SHT31;61467;50.674;4.618;2023-02-01T00:56:26;7.56;84.76
72650;SHT31;61467;50.674;4.618;2023-02-01T00:58:53;7.70;84.03
72650;SHT31;61467;50.674;4.618;2023-02-01T01:01:22;7.44;84.13
72650;SHT31;61467;50.674;4.618;2023-02-01T01:03:51;7.40;84.26
72650;SHT31;61467;50.674;4.618;2023-02-01T01:06:22;7.36;83.59
72650;SHT31;61467;50.674;4.618;2023-02-01T01:08:51;7.49;83.13
72650;SHT31;61467;50.674;4.618;2023-02-01T01:11:20;7.66;82.11
72650;SHT31;61467;50.674;4.618;2023-02-01T01:13:47;7.57;81.74
72650;SHT31;61467;50.674;4.618;2023-02-01T01:16:15;7.22;82.23
72650;SHT31;61467;50.674;4.618;2023-02-01T01:18:42;7.09;82.65
72650;SHT31;61467;50.674;4.618;2023-02-01T01:21:11;7.05;82.49
72650;SHT31;61467;50.674;4.618;2023-02-01T01:23:41;7.06;82.11
72650;SHT31;61467;50.674;4.618;2023-02-01T01:26:11;7.08;81.89
72650;SHT31;61467;50.674;4.618;2023-02-01T01:28:39;7.06;81.84
72650;SHT31;61467;50.674;4.618;2023-02-01T01:31:08;6.94;82.33
72650;SHT31;61467;50.674;4.618;2023-02-01T01:33:35;7.30;81.37
72650;SHT31;61467;50.674;4.618;2023-02-01T01:36:04;7.22;80.97
72650;SHT31;61467;50.674;4.618;2023-02-01T01:38:31;7.26;80.69
72650;SHT31;61467;50.674;4.618;2023-02-01T01:40:59;7.29;80.67
72650;SHT31;61467;50.674;4.618;2023-02-01T01:43:50;7.20;80.61
72650;SHT31;61467;50.674;4.618;2023-02-01T01:46:18;7.18;80.31
72650;SHT31;61467;50.674;4.618;2023-02-01T01:48:48;7.16;80.16
72650;SHT31;61467;50.674;4.618;2023-02-01T01:51:20;7.13;79.61
72650;SHT31;61467;50.674;4.618;2023-02-01T01:53:50;7.19;79.65
72650;SHT31;61467;50.674;4.618;2023-02-01T01:56:21;7.16;79.35
72650;SHT31;61467;50.674;4.618;2023-02-01T01:58:48;7.06;79.32
72650;SHT31;61467;50.674;4.618;2023-02-01T02:01:16;7.22;78.70
72650;SHT31;61467;50.674;4.618;2023-02-01T02:03:44;7.13;78.58
72650;SHT31;61467;50.674;4.618;2023-02-01T02:06:18;7.06;79.05
72650;SHT31;61467;50.674;4.618;2023-02-01T02:08:46;6.98;79.14
72650;SHT31;61467;50.674;4.618;2023-02-01T02:11:15;7.01;79.31
72650;SHT31;61467;50.674;4.618;2023-02-01T02:13:46;6.89;79.74
72650;SHT31;61467;50.674;4.618;2023-02-01T02:16:24;7.02;79.32
72650;SHT31;61467;50.674;4.618;2023-02-01T02:21:56;7.15;78.67
72650;SHT31;61467;50.674;4.618;2023-02-01T02:24:47;6.88;79.81
72650;SHT31;61467;50.674;4.618;2023-02-01T02:27:27;7.03;79.51
72650;SHT31;61467;50.674;4.618;2023-02-01T02:30:36;7.12;78.71
72650;SHT31;61467;50.674;4.618;2023-02-01T02:33:45;7.25;78.84
72650;SHT31;61467;50.674;4.618;2023-02-01T02:36:19;7.09;79.23
72650;SHT31;61467;50.674;4.618;2023-02-01T02:38:55;7.05;79.91
72650;SHT31;61467;50.674;4.618;2023-02-01T02:41:31;7.23;78.79
72650;SHT31;61467;50.674;4.618;2023-02-01T02:44:21;7.23;78.49
72650;SHT31;61467;50.674;4.618;2023-02-01T02:47:18;7.08;78.59
72650;SHT31;61467;50.674;4.618;2023-02-01T02:50:01;7.05;78.90
72650;SHT31;61467;50.674;4.618;2023-02-01T02:52:50;6.88;78.96
72650;SHT31;61467;50.674;4.618;2023-02-01T02:55:36;6.89;78.81
72650;SHT31;61467;50.674;4.618;2023-02-01T02:58:07;7.01;79.09
72650;SHT31;61467;50.674;4.618;2023-02-01T03:00:53;7.05;78.36
72650;SHT31;61467;50.674;4.618;2023-02-01T03:03:39;6.94;78.46
72650;SHT31;61467;50.674;4.618;2023-02-01T03:06:25;6.95;78.53
72650;SHT31;61467;50.674;4.618;2023-02-01T03:08:54;6.74;78.73
72650;SHT31;61467;50.674;4.618;2023-02-01T03:11:24;6.82;78.40
72650;SHT31;61467;50.674;4.618;2023-02-01T03:14:14;7.09;77.06
72650;SHT31;61467;50.674;4.618;2023-02-01T03:16:43;7.16;77.15
72650;SHT31;61467;50.674;4.618;2023-02-01T03:19:16;7.01;77.04
72650;SHT31;61467;50.674;4.618;2023-02-01T03:21:49;7.02;76.67
72650;SHT31;61467;50.674;4.618;2023-02-01T03:24:20;6.98;76.80
72650;SHT31;61467;50.674;4.618;2023-02-01T03:26:51;7.13;76.68
72650;SHT31;61467;50.674;4.618;2023-02-01T03:29:23;7.12;76.50
72650;SHT31;61467;50.674;4.618;2023-02-01T03:31:51;7.20;75.69
72650;SHT31;61467;50.674;4.618;2023-02-01T03:34:18;6.99;75.86
72650;SHT31;61467;50.674;4.618;2023-02-01T03:36:49;6.72;76.56
72650;SHT31;61467;50.674;4.618;2023-02-01T03:39:21;6.78;76.87
72650;SHT31;61467;50.674;4.618;2023-02-01T03:41:52;6.98;75.82
72650;SHT31;61467;50.674;4.618;2023-02-01T03:44:23;7.06;75.40
72650;SHT31;61467;50.674;4.618;2023-02-01T03:46:54;7.06;75.50
72650;SHT31;61467;50.674;4.618;2023-02-01T03:49:26;6.63;75.77
72650;SHT31;61467;50.674;4.618;2023-02-01T03:51:57;6.74;75.72
72650;SHT31;61467;50.674;4.618;2023-02-01T03:54:25;6.57;75.93
72650;SHT31;61467;50.674;4.618;2023-02-01T03:56:54;6.74;75.30
72650;SHT31;61467;50.674;4.618;2023-02-01T03:59:21;6.75;75.51
72650;SHT31;61467;50.674;4.618;2023-02-01T04:01:49;6.57;75.31
72650;SHT31;61467;50.674;4.618;2023-02-01T04:04:16;6.44;75.98
72650;SHT31;61467;50.674;4.618;2023-02-01T04:06:46;6.70;75.47
72650;SHT31;61467;50.674;4.618;2023-02-01T04:09:14;6.94;74.61
72650;SHT31;61467;50.674;4.618;2023-02-01T04:11:41;6.84;74.50
72650;SHT31;61467;50.674;4.618;2023-02-01T04:14:08;6.54;75.16
72650;SHT31;61467;50.674;4.618;2023-02-01T04:16:35;6.61;74.93
72650;SHT31;61467;50.674;4.618;2023-02-01T04:19:02;6.55;75.14
72650;SHT31;61467;50.674;4.618;2023-02-01T04:21:29;6.51;75.13
72650;SHT31;61467;50.674;4.618;2023-02-01T04:23:56;6.54;75.20
72650;SHT31;61467;50.674;4.618;2023-02-01T04:26:24;6.33;75.59
72650;SHT31;61467;50.674;4.618;2023-02-01T04:28:51;6.24;75.75
72650;SHT31;61467;50.674;4.618;2023-02-01T04:31:19;6.29;75.68
72650;SHT31;61467;50.674;4.618;2023-02-01T04:33:51;6.47;75.21
72650;SHT31;61467;50.674;4.618;2023-02-01T04:36:17;6.22;75.70
72650;SHT31;61467;50.674;4.618;2023-02-01T04:38:47;6.37;75.35
72650;SHT31;61467;50.674;4.618;2023-02-01T04:41:14;6.43;75.09
72650;SHT31;61467;50.674;4.618;2023-02-01T04:43:45;6.36;75.76
72650;SHT31;61467;50.674;4.618;2023-02-01T04:46:12;6.24;75.57
72650;SHT31;61467;50.674;4.618;2023-02-01T04:48:39;6.47;74.88
72650;SHT31;61467;50.674;4.618;2023-02-01T04:51:06;6.41;74.84
72650;SHT31;61467;50.674;4.618;2023-02-01T04:53:33;6.41;74.76
72650;SHT31;61467;50.674;4.618;2023-02-01T04:55:59;6.20;75.72
72650;SHT31;61467;50.674;4.618;2023-02-01T04:58:26;6.36;75.08
72650;SHT31;61467;50.674;4.618;2023-02-01T05:00:55;6.34;75.33
72650;SHT31;61467;50.674;4.618;2023-02-01T05:03:22;6.37;75.16
72650;SHT31;61467;50.674;4.618;2023-02-01T05:05:49;6.01;75.22
72650;SHT31;61467;50.674;4.618;2023-02-01T05:08:18;6.07;75.74
72650;SHT31;61467;50.674;4.618;2023-02-01T05:10:48;6.17;75.29
72650;SHT31;61467;50.674;4.618;2023-02-01T05:13:14;6.26;74.85
72650;SHT31;61467;50.674;4.618;2023-02-01T05:16:00;5.83;76.24
72650;SHT31;61467;50.674;4.618;2023-02-01T05:18:27;5.89;76.16
72650;SHT31;61467;50.674;4.618;2023-02-01T05:20:53;5.92;76.44
72650;SHT31;61467;50.674;4.618;2023-02-01T05:23:20;5.96;76.09
72650;SHT31;61467;50.674;4.618;2023-02-01T05:25:47;5.78;75.89
72650;SHT31;61467;50.674;4.618;2023-02-01T05:28:14;6.01;75.62
72650;SHT31;61467;50.674;4.618;2023-02-01T05:30:41;6.01;75.50
72650;SHT31;61467;50.674;4.618;2023-02-01T05:33:09;6.01;75.73
72650;SHT31;61467;50.674;4.618;2023-02-01T05:35:36;5.99;75.33
72650;SHT31;61467;50.674;4.618;2023-02-01T05:38:03;5.76;75.60
72650;SHT31;61467;50.674;4.618;2023-02-01T05:40:29;5.66;76.60
72650;SHT31;61467;50.674;4.618;2023-02-01T05:42:56;5.62;76.50
72650;SHT31;61467;50.674;4.618;2023-02-01T05:45:23;5.62;76.92
72650;SHT31;61467;50.674;4.618;2023-02-01T05:47:50;5.58;76.51
72650;SHT31;61467;50.674;4.618;2023-02-01T05:50:18;5.48;77.08
72650;SHT31;61467;50.674;4.618;2023-02-01T05:52:45;5.56;77.12
72650;SHT31;61467;50.674;4.618;2023-02-01T05:55:12;5.44;76.98
72650;SHT31;61467;50.674;4.618;2023-02-01T05:57:38;5.81;76.28
72650;SHT31;61467;50.674;4.618;2023-02-01T06:00:06;5.65;76.86
72650;SHT31;61467;50.674;4.618;2023-02-01T06:02:33;5.45;76.87
72650;SHT31;61467;50.674;4.618;2023-02-01T06:05:00;5.37;77.23
72650;SHT31;61467;50.674;4.618;2023-02-01T06:07:28;5.51;76.50
72650;SHT31;61467;50.674;4.618;2023-02-01T06:09:57;5.56;77.13
72650;SHT31;61467;50.674;4.618;2023-02-01T06:12:24;5.37;77.37
72650;SHT31;61467;50.674;4.618;2023-02-01T06:14:53;5.11;77.99
72650;SHT31;61467;50.674;4.618;2023-02-01T06:17:20;5.17;77.77
72650;SHT31;61467;50.674;4.618;2023-02-01T06:19:47;5.19;77.88
72650;SHT31;61467;50.674;4.618;2023-02-01T06:22:14;5.17;77.69
72650;SHT31;61467;50.674;4.618;2023-02-01T06:24:42;5.37;77.42
72650;SHT31;61467;50.674;4.618;2023-02-01T06:27:09;5.11;78.13
72650;SHT31;61467;50.674;4.618;2023-02-01T06:29:36;5.07;78.12
72650;SHT31;61467;50.674;4.618;2023-02-01T06:32:03;5.48;77.00
72650;SHT31;61467;50.674;4.618;2023-02-01T06:34:30;5.37;77.26
72650;SHT31;61467;50.674;4.618;2023-02-01T06:36:57;5.45;76.84
72650;SHT31;61467;50.674;4.618;2023-02-01T06:39:24;5.23;78.07
72650;SHT31;61467;50.674;4.618;2023-02-01T06:41:54;4.93;78.55
72650;SHT31;61467;50.674;4.618;2023-02-01T06:44:20;5.21;78.25
72650;SHT31;61467;50.674;4.618;2023-02-01T06:46:47;5.21;78.35
72650;SHT31;61467;50.674;4.618;2023-02-01T06:49:16;5.01;78.18
72650;SHT31;61467;50.674;4.618;2023-02-01T06:51:43;5.06;77.96
72650;SHT31;61467;50.674;4.618;2023-02-01T06:54:10;4.96;78.65
72650;SHT31;61467;50.674;4.618;2023-02-01T06:56:37;4.99;78.60
72650;SHT31;61467;50.674;4.618;2023-02-01T06:59:06;4.86;78.98
72650;SHT31;61467;50.674;4.618;2023-02-01T07:01:33;5.03;77.97
72650;SHT31;61467;50.674;4.618;2023-02-01T07:04:00;5.10;78.46
72650;SHT31;61467;50.674;4.618;2023-02-01T07:06:27;5.16;78.12
72650;SHT31;61467;50.674;4.618;2023-02-01T07:08:54;5.16;77.67
72650;SHT31;61467;50.674;4.618;2023-02-01T07:11:23;5.23;77.41
72650;SHT31;61467;50.674;4.618;2023-02-01T07:13:50;4.92;78.41
72650;SHT31;61467;50.674;4.618;2023-02-01T07:16:19;5.07;78.08
72650;SHT31;61467;50.674;4.618;2023-02-01T07:18:46;4.90;78.56
72650;SHT31;61467;50.674;4.618;2023-02-01T07:21:13;4.92;78.64
72650;SHT31;61467;50.674;4.618;2023-02-01T07:23:40;4.99;78.85
72650;SHT31;61467;50.674;4.618;2023-02-01T07:26:09;4.87;78.90
72650;SHT31;61467;50.674;4.618;2023-02-01T07:28:37;4.84;79.34
72650;SHT31;61467;50.674;4.618;2023-02-01T07:31:07;5.03;78.93
72650;SHT31;61467;50.674;4.618;2023-02-01T07:33:36;4.82;78.81
72650;SHT31;61467;50.674;4.618;2023-02-01T07:36:05;5.06;78.32
72650;SHT31;61467;50.674;4.618;2023-02-01T07:38:32;5.27;77.78
72650;SHT31;61467;50.674;4.618;2023-02-01T07:41:00;4.92;78.78
72650;SHT31;61467;50.674;4.618;2023-02-01T07:43:27;5.07;78.46
72650;SHT31;61467;50.674;4.618;2023-02-01T07:45:55;4.96;78.36
72650;SHT31;61467;50.674;4.618;2023-02-01T07:48:22;4.86;79.22
72650;SHT31;61467;50.674;4.618;2023-02-01T07:50:58;5.14;78.43
72650;SHT31;61467;50.674;4.618;2023-02-01T07:53:25;5.23;77.88
72650;SHT31;61467;50.674;4.618;2023-02-01T07:55:52;5.21;78.03
72650;SHT31;61467;50.674;4.618;2023-02-01T07:58:19;5.07;78.44
72650;SHT31;61467;50.674;4.618;2023-02-01T08:00:45;5.41;77.88
72650;SHT31;61467;50.674;4.618;2023-02-01T08:03:29;5.35;77.70
72650;SHT31;61467;50.674;4.618;2023-02-01T08:05:57;5.30;78.08
72650;SHT31;61467;50.674;4.618;2023-02-01T08:08:24;5.21;77.91
72650;SHT31;61467;50.674;4.618;2023-02-01T08:10:51;5.27;77.89
72650;SHT31;61467;50.674;4.618;2023-02-01T08:13:23;5.44;77.85
72650;SHT31;61467;50.674;4.618;2023-02-01T08:15:49;5.28;78.69
72650;SHT31;61467;50.674;4.618;2023-02-01T08:18:16;5.42;78.20
72650;SHT31;61467;50.674;4.618;2023-02-01T08:20:43;5.50;77.87
72650;SHT31;61467;50.674;4.618;2023-02-01T08:23:12;5.78;78.02
72650;SHT31;61467;50.674;4.618;2023-02-01T08:25:39;5.73;77.36
72650;SHT31;61467;50.674;4.618;2023-02-01T08:28:06;5.65;77.27
72650;SHT31;61467;50.674;4.618;2023-02-01T08:30:33;5.73;77.38
72650;SHT31;61467;50.674;4.618;2023-02-01T08:33:00;5.85;76.82
72650;SHT31;61467;50.674;4.618;2023-02-01T08:35:27;5.79;77.16
72650;SHT31;61467;50.674;4.618;2023-02-01T08:37:54;5.89;76.51
72650;SHT31;61467;50.674;4.618;2023-02-01T08:40:22;5.72;77.34
72650;SHT31;61467;50.674;4.618;2023-02-01T08:42:49;5.66;77.24
72650;SHT31;61467;50.674;4.618;2023-02-01T08:45:20;5.65;77.22
72650;SHT31;61467;50.674;4.618;2023-02-01T08:47:47;5.69;77.30
72650;SHT31;61467;50.674;4.618;2023-02-01T08:50:14;5.59;77.57
72650;SHT31;61467;50.674;4.618;2023-02-01T08:52:41;5.61;77.29
72650;SHT31;61467;50.674;4.618;2023-02-01T08:55:09;5.68;77.38
72650;SHT31;61467;50.674;4.618;2023-02-01T08:57:37;5.75;77.07
72650;SHT31;61467;50.674;4.618;2023-02-01T09:00:06;5.81;76.88
72650;SHT31;61467;50.674;4.618;2023-02-01T09:02:34;6.01;76.40
72650;SHT31;61467;50.674;4.618;2023-02-01T09:05:01;6.13;76.11
72650;SHT31;61467;50.674;4.618;2023-02-01T09:07:27;6.22;75.86
72650;SHT31;61467;50.674;4.618;2023-02-01T09:09:54;6.03;76.16
72650;SHT31;61467;50.674;4.618;2023-02-01T09:12:26;6.05;76.49
72650;SHT31;61467;50.674;4.618;2023-02-01T09:14:55;6.22;76.13
72650;SHT31;61467;50.674;4.618;2023-02-01T09:17:22;6.23;75.85
72650;SHT31;61467;50.674;4.618;2023-02-01T09:19:48;6.33;75.76
72650;SHT31;61467;50.674;4.618;2023-02-01T09:22:15;6.43;75.56
72650;SHT31;61467;50.674;4.618;2023-02-01T09:24:42;6.32;75.60
72650;SHT31;61467;50.674;4.618;2023-02-01T09:27:09;6.45;75.42
72650;SHT31;61467;50.674;4.618;2023-02-01T09:29:36;6.36;75.70
72650;SHT31;61467;50.674;4.618;2023-02-01T09:32:04;6.53;75.17
72650;SHT31;61467;50.674;4.618;2023-02-01T09:34:32;6.61;74.99
72650;SHT31;61467;50.674;4.618;2023-02-01T09:36:58;6.80;75.10
72650;SHT31;61467;50.674;4.618;2023-02-01T09:39:25;6.70;74.53
72650;SHT31;61467;50.674;4.618;2023-02-01T09:41:59;6.74;74.51
72650;SHT31;61467;50.674;4.618;2023-02-01T09:44:39;6.72;74.81
72650;SHT31;61467;50.674;4.618;2023-02-01T09:47:13;6.75;74.87
72650;SHT31;61467;50.674;4.618;2023-02-01T09:49:48;7.05;74.43
72650;SHT31;61467;50.674;4.618;2023-02-01T09:52:22;7.05;74.46
72650;SHT31;61467;50.674;4.618;2023-02-01T09:54:52;7.03;73.93
72650;SHT31;61467;50.674;4.618;2023-02-01T09:57:25;7.13;73.42
72650;SHT31;61467;50.674;4.618;2023-02-01T09:59:57;7.11;73.93
72650;SHT31;61467;50.674;4.618;2023-02-01T10:02:27;7.30;73.40
72650;SHT31;61467;50.674;4.618;2023-02-01T10:04:57;7.34;72.67
72650;SHT31;61467;50.674;4.618;2023-02-01T10:07:33;7.34;72.19
72650;SHT31;61467;50.674;4.618;2023-02-01T10:10:05;7.37;72.32
72650;SHT31;61467;50.674;4.618;2023-02-01T10:13:12;7.53;72.11
72650;SHT31;61467;50.674;4.618;2023-02-01T10:15:51;7.56;71.67
72650;SHT31;61467;50.674;4.618;2023-02-01T10:18:37;7.64;71.31
72650;SHT31;61467;50.674;4.618;2023-02-01T10:21:13;7.46;71.23
72650;SHT31;61467;50.674;4.618;2023-02-01T10:24:08;7.71;71.05
72650;SHT31;61467;50.674;4.618;2023-02-01T10:26:40;7.95;70.26
72650;SHT31;61467;50.674;4.618;2023-02-01T10:29:15;7.99;70.24
72650;SHT31;61467;50.674;4.618;2023-02-01T10:31:43;8.04;70.53
72650;SHT31;61467;50.674;4.618;2023-02-01T10:34:18;8.12;69.36
72650;SHT31;61467;50.674;4.618;2023-02-01T10:36:57;8.12;69.43
72650;SHT31;61467;50.674;4.618;2023-02-01T10:39:26;8.05;69.56
72650;SHT31;61467;50.674;4.618;2023-02-01T10:41:55;8.08;69.41
72650;SHT31;61467;50.674;4.618;2023-02-01T10:44:24;8.06;69.45
72650;SHT31;61467;50.674;4.618;2023-02-01T10:46:52;8.31;69.17
72650;SHT31;61467;50.674;4.618;2023-02-01T10:49:24;8.35;68.69
72650;SHT31;61467;50.674;4.618;2023-02-01T10:51:55;8.25;68.54
72650;SHT31;61467;50.674;4.618;2023-02-01T10:54:33;8.45;68.48
72650;SHT31;61467;50.674;4.618;2023-02-01T10:57:00;8.46;68.23
72650;SHT31;61467;50.674;4.618;2023-02-01T10:59:29;8.70;67.72
72650;SHT31;61467;50.674;4.618;2023-02-01T11:01:59;8.77;66.91
72650;SHT31;61467;50.674;4.618;2023-02-01T11:04:30;8.79;67.05
72650;SHT31;61467;50.674;4.618;2023-02-01T11:07:06;8.81;66.76
72650;SHT31;61467;50.674;4.618;2023-02-01T11:09:35;8.66;66.95
72650;SHT31;61467;50.674;4.618;2023-02-01T11:12:09;8.94;66.69
72650;SHT31;61467;50.674;4.618;2023-02-01T11:14:47;8.91;67.22
72650;SHT31;61467;50.674;4.618;2023-02-01T11:17:26;9.14;65.99
72650;SHT31;61467;50.674;4.618;2023-02-01T11:19:58;9.11;66.21
72650;SHT31;61467;50.674;4.618;2023-02-01T11:22:27;9.24;66.04
72650;SHT31;61467;50.674;4.618;2023-02-01T11:24:55;9.32;65.76
72650;SHT31;61467;50.674;4.618;2023-02-01T11:27:24;9.48;65.53
72650;SHT31;61467;50.674;4.618;2023-02-01T11:29:54;9.44;65.03
72650;SHT31;61467;50.674;4.618;2023-02-01T11:32:23;9.63;64.61
72650;SHT31;61467;50.674;4.618;2023-02-01T11:34:54;9.44;64.48
72650;SHT31;61467;50.674;4.618;2023-02-01T11:37:25;9.36;65.00
72650;SHT31;61467;50.674;4.618;2023-02-01T11:39:55;9.46;64.58
72650;SHT31;61467;50.674;4.618;2023-02-01T11:42:22;9.31;64.24
72650;SHT31;61467;50.674;4.618;2023-02-01T11:44:50;9.55;64.04
72650;SHT31;61467;50.674;4.618;2023-02-01T11:47:22;9.69;63.60
72650;SHT31;61467;50.674;4.618;2023-02-01T11:49:51;9.65;63.35
72650;SHT31;61467;50.674;4.618;2023-02-01T11:52:32;9.86;62.17
72650;SHT31;61467;50.674;4.618;2023-02-01T11:55:18;10.14;62.08
72650;SHT31;61467;50.674;4.618;2023-02-01T11:57:59;10.09;61.97
72650;SHT31;61467;50.674;4.618;2023-02-01T12:00:53;10.36;60.79
72650;SHT31;61467;50.674;4.618;2023-02-01T12:03:47;10.76;60.70
72650;SHT31;61467;50.674;4.618;2023-02-01T12:06:25;10.53;58.84
72650;SHT31;61467;50.674;4.618;2023-02-01T12:09:09;10.44;59.27
72650;SHT31;61467;50.674;4.618;2023-02-01T12:11:50;10.43;59.69
72650;SHT31;61467;50.674;4.618;2023-02-01T12:14:32;10.40;58.73
72650;SHT31;61467;50.674;4.618;2023-02-01T12:17:16;10.60;58.95
72650;SHT31;61467;50.674;4.618;2023-02-01T12:20:02;10.67;58.25
72650;SHT31;61467;50.674;4.618;2023-02-01T12:22:39;10.79;57.74
72650;SHT31;61467;50.674;4.618;2023-02-01T12:25:32;10.69;58.02
72650;SHT31;61467;50.674;4.618;2023-02-01T12:28:26;10.84;56.77
72650;SHT31;61467;50.674;4.618;2023-02-01T12:31:13;10.75;57.56
72650;SHT31;61467;50.674;4.618;2023-02-01T12:33:55;10.86;56.76
72650;SHT31;61467;50.674;4.618;2023-02-01T12:36:32;10.69;57.15
72650;SHT31;61467;50.674;4.618;2023-02-01T12:39:10;10.44;57.69
72650;SHT31;61467;50.674;4.618;2023-02-01T12:41:52;10.37;57.79
72650;SHT31;61467;50.674;4.618;2023-02-01T12:44:27;10.43;58.08
72650;SHT31;61467;50.674;4.618;2023-02-01T12:46:59;10.53;56.99
72650;SHT31;61467;50.674;4.618;2023-02-01T12:49:32;10.58;56.98
72650;SHT31;61467;50.674;4.618;2023-02-01T12:52:03;10.53;57.61
72650;SHT31;61467;50.674;4.618;2023-02-01T12:54:35;10.85;57.07
72650;SHT31;61467;50.674;4.618;2023-02-01T12:57:06;10.76;57.27
72650;SHT31;61467;50.674;4.618;2023-02-01T12:59:39;10.91;56.39
72650;SHT31;61467;50.674;4.618;2023-02-01T13:02:14;10.84;57.14
72650;SHT31;61467;50.674;4.618;2023-02-01T13:04:52;10.96;56.53
72650;SHT31;61467;50.674;4.618;2023-02-01T13:07:23;10.75;56.10
72650;SHT31;61467;50.674;4.618;2023-02-01T13:09:56;10.64;56.38
72650;SHT31;61467;50.674;4.618;2023-02-01T13:12:32;10.60;56.11
72650;SHT31;61467;50.674;4.618;2023-02-01T13:15:02;10.54;56.19
72650;SHT31;61467;50.674;4.618;2023-02-01T13:17:32;10.41;56.78
72650;SHT31;61467;50.674;4.618;2023-02-01T13:20:03;10.38;56.44
72650;SHT31;61467;50.674;4.618;2023-02-01T13:22:34;10.55;57.10
72650;SHT31;61467;50.674;4.618;2023-02-01T13:25:04;10.64;56.43
72650;SHT31;61467;50.674;4.618;2023-02-01T13:27:33;10.55;55.99
72650;SHT31;61467;50.674;4.618;2023-02-01T13:30:01;10.63;56.47
72650;SHT31;61467;50.674;4.618;2023-02-01T13:41:28;10.48;56.53
72650;SHT31;61467;50.674;4.618;2023-02-01T13:44:01;10.57;55.72
72650;SHT31;61467;50.674;4.618;2023-02-01T13:46:29;10.61;56.05
72650;SHT31;61467;50.674;4.618;2023-02-01T13:48:59;10.41;56.36
72650;SHT31;61467;50.674;4.618;2023-02-01T13:51:36;10.14;57.42
72650;SHT31;61467;50.674;4.618;2023-02-01T13:54:04;10.16;57.99
72650;SHT31;61467;50.674;4.618;2023-02-01T13:56:40;10.16;57.85
72650;SHT31;61467;50.674;4.618;2023-02-01T14:02:50;10.36;57.31
72650;SHT31;61467;50.674;4.618;2023-02-01T14:06:00;10.34;57.80
72650;SHT31;61467;50.674;4.618;2023-02-01T14:08:43;10.43;57.06
72650;SHT31;61467;50.674;4.618;2023-02-01T14:11:32;10.36;57.45
72650;SHT31;61467;50.674;4.618;2023-02-01T14:19:46;10.16;58.43
72650;SHT31;61467;50.674;4.618;2023-02-01T14:22:33;10.24;58.75
72650;SHT31;61467;50.674;4.618;2023-02-01T14:25:00;10.24;59.42
72650;SHT31;61467;50.674;4.618;2023-02-01T14:27:30;10.43;59.39
72650;SHT31;61467;50.674;4.618;2023-02-01T14:30:06;10.10;60.20
72650;SHT31;61467;50.674;4.618;2023-02-01T14:32:36;10.23;60.65
72650;SHT31;61467;50.674;4.618;2023-02-01T14:35:17;10.10;60.50
72650;SHT31;61467;50.674;4.618;2023-02-01T14:37:46;10.16;60.68
72650;SHT31;61467;50.674;4.618;2023-02-01T14:40:22;9.85;60.93
72650;SHT31;61467;50.674;4.618;2023-02-01T14:42:53;9.81;61.58
72650;SHT31;61467;50.674;4.618;2023-02-01T14:45:47;9.87;61.35
72650;SHT31;61467;50.674;4.618;2023-02-01T14:48:41;9.90;61.78
72650;SHT31;61467;50.674;4.618;2023-02-01T14:51:11;9.85;61.82
72650;SHT31;61467;50.674;4.618;2023-02-01T14:53:40;9.71;62.13
72650;SHT31;61467;50.674;4.618;2023-02-01T14:56:13;9.90;61.23
72650;SHT31;61467;50.674;4.618;2023-02-01T14:58:43;9.86;62.16
72650;SHT31;61467;50.674;4.618;2023-02-01T15:01:18;9.92;62.33
72650;SHT31;61467;50.674;4.618;2023-02-01T15:04:00;9.97;61.72
72650;SHT31;61467;50.674;4.618;2023-02-01T15:06:32;10.06;62.14
72650;SHT31;61467;50.674;4.618;2023-02-01T15:09:03;9.92;61.79
72650;SHT31;61467;50.674;4.618;2023-02-01T15:11:30;9.71;62.70
72650;SHT31;61467;50.674;4.618;2023-02-01T15:13:57;9.79;62.58
72650;SHT31;61467;50.674;4.618;2023-02-01T15:16:26;9.66;63.06
72650;SHT31;61467;50.674;4.618;2023-02-01T15:19:10;9.66;63.27
72650;SHT31;61467;50.674;4.618;2023-02-01T15:21:47;9.46;63.90
72650;SHT31;61467;50.674;4.618;2023-02-01T15:24:19;9.46;64.27
72650;SHT31;61467;50.674;4.618;2023-02-01T15:26:47;9.56;64.01
72650;SHT31;61467;50.674;4.618;2023-02-01T15:29:14;9.55;63.89
72650;SHT31;61467;50.674;4.618;2023-02-01T15:31:45;9.48;64.37
72650;SHT31;61467;50.674;4.618;2023-02-01T15:34:12;9.52;63.42
72650;SHT31;61467;50.674;4.618;2023-02-01T15:36:40;9.58;63.50
72650;SHT31;61467;50.674;4.618;2023-02-01T15:39:18;9.58;63.22
72650;SHT31;61467;50.674;4.618;2023-02-01T15:41:53;9.46;63.68
72650;SHT31;61467;50.674;4.618;2023-02-01T15:44:33;9.62;63.55
72650;SHT31;61467;50.674;4.618;2023-02-01T15:47:07;9.31;63.52
72650;SHT31;61467;50.674;4.618;2023-02-01T15:49:37;9.48;63.32
72650;SHT31;61467;50.674;4.618;2023-02-01T15:52:19;9.39;63.52
72650;SHT31;61467;50.674;4.618;2023-02-01T15:54:51;9.46;63.07
72650;SHT31;61467;50.674;4.618;2023-02-01T15:57:20;9.39;63.71
72650;SHT31;61467;50.674;4.618;2023-02-01T15:59:49;9.51;63.33
72650;SHT31;61467;50.674;4.618;2023-02-01T16:02:26;9.45;63.64
72650;SHT31;61467;50.674;4.618;2023-02-01T16:04:53;9.31;64.08
72650;SHT31;61467;50.674;4.618;2023-02-01T16:07:26;9.23;64.61
72650;SHT31;61467;50.674;4.618;2023-02-01T16:09:57;9.54;64.08
72650;SHT31;61467;50.674;4.618;2023-02-01T16:12:29;9.34;64.36
72650;SHT31;61467;50.674;4.618;2023-02-01T16:14:56;9.41;64.75
72650;SHT31;61467;50.674;4.618;2023-02-01T16:17:22;9.36;65.05
72650;SHT31;61467;50.674;4.618;2023-02-01T16:19:50;9.39;65.13
72650;SHT31;61467;50.674;4.618;2023-02-01T16:22:17;9.31;65.16
72650;SHT31;61467;50.674;4.618;2023-02-01T16:24:43;9.36;64.90
72650;SHT31;61467;50.674;4.618;2023-02-01T16:27:12;9.44;65.01
72650;SHT31;61467;50.674;4.618;2023-02-01T16:29:38;9.17;65.83
72650;SHT31;61467;50.674;4.618;2023-02-01T16:32:05;9.13;66.12
72650;SHT31;61467;50.674;4.618;2023-02-01T16:34:32;9.15;65.94